createdAt,value
2018-07-15T00:00:23.107Z,24.00
2018-07-15T00:01:25.366Z,24.00
2018-07-15T00:02:27.749Z,24.10
2018-07-15T00:04:32.319Z,24.00
2018-07-15T00:05:34.678Z,24.00
2018-07-15T00:06:37.028Z,23.90
2018-07-15T00:07:39.326Z,23.90
2018-07-15T00:08:41.573Z,23.90
2018-07-15T00:09:43.845Z,23.90
2018-07-15T00:10:46.466Z,23.90
2018-07-15T00:11:48.719Z,23.90
2018-07-15T00:12:50.995Z,23.90
2018-07-15T00:13:53.262Z,23.90
2018-07-15T00:14:55.515Z,23.90
2018-07-15T00:15:58.218Z,23.80
2018-07-15T00:18:02.835Z,23.80
2018-07-15T00:19:05.127Z,23.80
2018-07-15T00:20:07.418Z,23.60
2018-07-15T00:21:09.687Z,23.70
2018-07-15T00:22:11.998Z,23.70
2018-07-15T00:23:14.275Z,23.70
2018-07-15T00:24:16.654Z,23.70
2018-07-15T00:25:18.946Z,23.60
2018-07-15T00:26:21.253Z,23.60
2018-07-15T00:27:23.543Z,23.60
2018-07-15T00:28:25.801Z,23.60
2018-07-15T00:29:28.026Z,23.60
2018-07-15T00:30:30.277Z,23.50
2018-07-15T00:31:32.544Z,23.50
2018-07-15T00:32:34.796Z,23.40
2018-07-15T00:33:37.131Z,23.40
2018-07-15T00:34:39.386Z,23.40
2018-07-15T00:35:41.650Z,23.40
2018-07-15T00:36:43.911Z,23.40
2018-07-15T00:38:48.427Z,23.40
2018-07-15T00:39:50.698Z,23.40
2018-07-15T00:41:55.231Z,23.40
2018-07-15T00:42:57.476Z,23.40
2018-07-15T00:43:59.723Z,23.40
2018-07-15T00:45:02.010Z,23.30
2018-07-15T00:46:04.274Z,23.40
2018-07-15T00:47:06.594Z,23.40
2018-07-15T00:48:09.261Z,23.40
2018-07-15T00:49:11.562Z,23.30
2018-07-15T00:50:13.835Z,23.30
2018-07-15T00:51:16.140Z,23.30
2018-07-15T00:52:18.434Z,23.40
2018-07-15T00:53:20.683Z,23.30
2018-07-15T00:54:22.951Z,23.40
2018-07-15T00:55:25.289Z,23.30
2018-07-15T00:56:27.527Z,23.30
2018-07-15T00:57:29.820Z,23.20
2018-07-15T00:58:32.108Z,23.20
2018-07-15T00:59:34.382Z,23.20
2018-07-15T01:00:42.382Z,23.20
2018-07-15T01:01:44.629Z,23.20
2018-07-15T01:02:46.888Z,23.20
2018-07-15T01:03:49.146Z,23.30
2018-07-15T01:04:51.414Z,23.20
2018-07-15T01:05:53.720Z,23.30
2018-07-15T01:06:55.999Z,23.20
2018-07-15T01:07:58.283Z,23.30
2018-07-15T01:09:00.542Z,23.20
2018-07-15T01:11:05.036Z,23.20
2018-07-15T01:12:07.264Z,23.20
2018-07-15T01:13:09.489Z,23.20
2018-07-15T01:14:11.750Z,23.20
2018-07-15T01:15:14.178Z,23.20
2018-07-15T01:16:16.426Z,23.20
2018-07-15T01:17:18.690Z,23.20
2018-07-15T01:18:20.930Z,23.20
2018-07-15T01:19:23.169Z,23.20
2018-07-15T01:20:25.432Z,23.20
2018-07-15T01:21:27.653Z,23.20
2018-07-15T01:22:29.897Z,23.20
2018-07-15T01:23:32.226Z,23.20
2018-07-15T01:24:34.465Z,23.20
2018-07-15T01:25:36.740Z,23.20
2018-07-15T01:26:38.975Z,23.20
2018-07-15T01:27:41.196Z,23.20
2018-07-15T01:28:43.437Z,23.20
2018-07-15T01:29:45.983Z,23.20
2018-07-15T01:30:48.235Z,23.20
2018-07-15T01:31:50.486Z,23.20
2018-07-15T01:32:52.763Z,23.20
2018-07-15T01:33:55.093Z,23.10
2018-07-15T01:34:57.343Z,23.20
2018-07-15T01:35:59.596Z,23.10
2018-07-15T01:37:01.862Z,23.10
2018-07-15T01:39:06.428Z,23.10
2018-07-15T01:40:08.682Z,23.00
2018-07-15T01:41:10.899Z,23.00
2018-07-15T01:42:20.038Z,22.90
2018-07-15T01:43:22.275Z,22.90
2018-07-15T01:44:31.363Z,22.80
2018-07-15T01:45:33.864Z,22.80
2018-07-15T01:46:36.107Z,22.70
2018-07-15T01:47:38.310Z,22.70
2018-07-15T01:48:40.557Z,22.70
2018-07-15T01:49:42.792Z,22.60
2018-07-15T01:51:47.335Z,22.50
2018-07-15T01:52:49.553Z,22.50
2018-07-15T01:53:58.681Z,22.50
2018-07-15T01:55:00.932Z,22.50
2018-07-15T01:56:03.406Z,22.40
2018-07-15T01:57:05.640Z,22.40
2018-07-15T01:58:07.869Z,22.40
2018-07-15T01:59:10.094Z,22.40
2018-07-15T02:00:12.357Z,22.40
2018-07-15T02:01:14.599Z,22.40
2018-07-15T02:02:16.842Z,22.40
2018-07-15T02:03:19.097Z,22.40
2018-07-15T02:04:21.341Z,22.40
2018-07-15T02:06:25.921Z,22.40
2018-07-15T02:07:28.134Z,22.40
2018-07-15T02:08:30.370Z,22.40
2018-07-15T02:09:32.603Z,22.40
2018-07-15T02:11:37.085Z,22.40
2018-07-15T02:12:39.330Z,22.30
2018-07-15T02:13:41.557Z,22.30
2018-07-15T02:14:43.834Z,22.20
2018-07-15T02:15:46.091Z,22.30
2018-07-15T02:16:48.444Z,22.30
2018-07-15T02:17:50.693Z,22.30
2018-07-15T02:18:52.953Z,22.30
2018-07-15T02:20:57.426Z,22.30
2018-07-15T02:21:59.661Z,22.30
2018-07-15T02:23:01.938Z,22.30
2018-07-15T02:24:04.243Z,22.30
2018-07-15T02:25:07.148Z,22.40
2018-07-15T02:26:09.369Z,22.30
2018-07-15T02:27:11.671Z,22.30
2018-07-15T02:28:13.902Z,22.30
2018-07-15T02:30:18.430Z,22.30
2018-07-15T02:31:20.683Z,22.30
2018-07-15T02:32:22.914Z,22.30
2018-07-15T02:33:25.137Z,22.30
2018-07-15T02:34:27.391Z,22.30
2018-07-15T02:36:31.951Z,22.20
2018-07-15T02:37:34.199Z,22.30
2018-07-15T02:38:36.457Z,22.20
2018-07-15T02:39:38.705Z,22.20
2018-07-15T02:40:40.963Z,22.20
2018-07-15T02:41:43.194Z,22.20
2018-07-15T02:42:45.686Z,22.20
2018-07-15T02:43:47.935Z,22.30
2018-07-15T02:44:50.191Z,22.20
2018-07-15T02:45:52.422Z,22.30
2018-07-15T02:46:54.668Z,22.30
2018-07-15T02:47:56.890Z,22.30
2018-07-15T02:48:59.135Z,22.30
2018-07-15T02:50:01.377Z,22.30
2018-07-15T02:51:03.647Z,22.30
2018-07-15T02:52:05.964Z,22.10
2018-07-15T02:53:08.199Z,22.30
2018-07-15T02:54:10.444Z,22.30
2018-07-15T02:55:12.713Z,22.30
2018-07-15T02:56:14.938Z,22.20
2018-07-15T02:57:17.179Z,22.20
2018-07-15T02:58:19.430Z,22.20
2018-07-15T02:59:21.688Z,22.20
2018-07-15T03:01:30.055Z,22.10
2018-07-15T03:02:32.296Z,22.20
2018-07-15T03:03:34.520Z,22.10
2018-07-15T03:05:39.001Z,22.00
2018-07-15T03:06:41.235Z,22.00
2018-07-15T03:07:43.530Z,22.00
2018-07-15T03:08:45.702Z,22.00
2018-07-15T03:09:47.926Z,22.00
2018-07-15T03:10:50.187Z,21.90
2018-07-15T03:11:52.481Z,22.00
2018-07-15T03:12:54.733Z,21.90
2018-07-15T03:13:56.969Z,21.90
2018-07-15T03:14:59.223Z,21.90
2018-07-15T03:16:01.491Z,21.90
2018-07-15T03:17:03.743Z,21.90
2018-07-15T03:18:06.043Z,21.90
2018-07-15T03:20:10.666Z,22.00
2018-07-15T03:21:12.943Z,22.00
2018-07-15T03:22:15.187Z,22.00
2018-07-15T03:24:19.730Z,22.00
2018-07-15T03:25:21.992Z,22.00
2018-07-15T03:27:26.476Z,22.00
2018-07-15T03:28:28.721Z,22.10
2018-07-15T03:29:30.954Z,22.10
2018-07-15T03:30:33.191Z,22.10
2018-07-15T03:32:37.742Z,22.00
2018-07-15T03:33:39.971Z,22.00
2018-07-15T03:34:42.185Z,21.90
2018-07-15T03:35:44.417Z,22.00
2018-07-15T03:36:46.642Z,22.00
2018-07-15T03:37:48.879Z,22.00
2018-07-15T03:38:51.114Z,22.00
2018-07-15T03:39:53.391Z,22.00
2018-07-15T03:40:55.607Z,22.00
2018-07-15T03:41:57.844Z,22.00
2018-07-15T03:43:00.081Z,22.00
2018-07-15T03:44:02.278Z,22.00
2018-07-15T03:45:04.573Z,22.00
2018-07-15T03:46:07.142Z,22.00
2018-07-15T03:47:09.377Z,21.90
2018-07-15T03:48:11.595Z,21.90
2018-07-15T03:49:13.871Z,21.80
2018-07-15T03:50:16.113Z,21.70
2018-07-15T03:51:18.359Z,21.70
2018-07-15T03:52:20.611Z,21.70
2018-07-15T03:53:22.842Z,21.70
2018-07-15T03:54:25.118Z,21.70
2018-07-15T03:55:27.399Z,21.60
2018-07-15T03:56:29.672Z,21.60
2018-07-15T03:57:31.886Z,21.60
2018-07-15T03:58:34.084Z,21.60
2018-07-15T03:59:36.331Z,21.60
2018-07-15T04:00:38.587Z,21.70
2018-07-15T04:01:40.795Z,21.70
2018-07-15T04:02:43.016Z,21.80
2018-07-15T04:03:45.278Z,21.70
2018-07-15T04:04:47.502Z,21.70
2018-07-15T04:05:49.712Z,21.70
2018-07-15T04:06:51.958Z,21.70
2018-07-15T04:07:54.205Z,21.80
2018-07-15T04:08:56.473Z,21.70
2018-07-15T04:09:58.693Z,21.70
2018-07-15T04:11:00.957Z,21.70
2018-07-15T04:12:03.219Z,21.70
2018-07-15T04:13:05.442Z,21.70
2018-07-15T04:14:07.674Z,21.60
2018-07-15T04:15:09.890Z,21.60
2018-07-15T04:16:12.155Z,21.60
2018-07-15T04:17:14.352Z,21.50
2018-07-15T04:18:16.562Z,21.40
2018-07-15T04:20:21.033Z,21.40
2018-07-15T04:22:25.533Z,21.40
2018-07-15T04:23:27.762Z,21.40
2018-07-15T04:24:30.008Z,21.40
2018-07-15T04:25:33.047Z,21.40
2018-07-15T04:26:35.281Z,21.40
2018-07-15T04:27:37.546Z,21.40
2018-07-15T04:28:39.781Z,21.50
2018-07-15T04:29:41.989Z,21.50
2018-07-15T04:31:46.436Z,21.50
2018-07-15T04:32:48.645Z,21.50
2018-07-15T04:33:50.855Z,21.50
2018-07-15T04:34:53.054Z,21.50
2018-07-15T04:35:55.270Z,21.50
2018-07-15T04:37:04.234Z,21.60
2018-07-15T04:38:07.421Z,21.60
2018-07-15T04:39:09.917Z,21.60
2018-07-15T04:40:12.159Z,21.50
2018-07-15T04:41:14.330Z,21.40
2018-07-15T04:42:16.526Z,21.50
2018-07-15T04:43:18.754Z,21.40
2018-07-15T04:44:20.974Z,21.40
2018-07-15T04:45:23.218Z,21.40
2018-07-15T04:46:25.438Z,21.40
2018-07-15T04:47:27.650Z,21.40
2018-07-15T04:48:29.889Z,21.40
2018-07-15T04:49:32.086Z,21.40
2018-07-15T04:50:34.266Z,21.40
2018-07-15T04:51:36.580Z,21.40
2018-07-15T04:52:38.815Z,21.30
2018-07-15T04:54:43.330Z,21.30
2018-07-15T04:55:45.554Z,21.30
2018-07-15T04:56:47.789Z,21.40
2018-07-15T04:57:49.978Z,21.40
2018-07-15T04:58:52.231Z,21.30
2018-07-15T04:59:54.859Z,21.30
2018-07-15T05:00:57.077Z,21.20
2018-07-15T05:01:59.299Z,21.20
2018-07-15T05:03:01.509Z,21.20
2018-07-15T05:04:04.168Z,21.20
2018-07-15T05:05:06.546Z,21.20
2018-07-15T05:06:08.733Z,21.20
2018-07-15T05:07:17.870Z,21.10
2018-07-15T05:08:20.136Z,21.10
2018-07-15T05:09:22.338Z,21.10
2018-07-15T05:10:24.578Z,21.00
2018-07-15T05:11:26.788Z,21.00
2018-07-15T05:12:29.046Z,21.10
2018-07-15T05:13:31.316Z,21.10
2018-07-15T05:14:33.497Z,21.10
2018-07-15T05:15:35.715Z,21.20
2018-07-15T05:16:38.050Z,21.20
2018-07-15T05:17:40.261Z,21.20
2018-07-15T05:18:42.522Z,21.20
2018-07-15T05:19:44.727Z,21.20
2018-07-15T05:20:46.945Z,21.20
2018-07-15T05:22:51.429Z,21.20
2018-07-15T05:23:53.674Z,21.20
2018-07-15T05:26:04.967Z,21.30
2018-07-15T05:27:07.248Z,21.30
2018-07-15T05:28:09.450Z,21.30
2018-07-15T05:29:11.679Z,21.30
2018-07-15T05:30:13.927Z,21.30
2018-07-15T05:31:16.174Z,21.30
2018-07-15T05:32:18.408Z,21.40
2018-07-15T05:33:20.667Z,21.30
2018-07-15T05:34:22.900Z,21.40
2018-07-15T05:35:25.187Z,21.40
2018-07-15T05:36:27.410Z,21.40
2018-07-15T05:37:29.655Z,21.50
2018-07-15T05:38:31.899Z,21.50
2018-07-15T05:39:34.269Z,21.60
2018-07-15T05:40:36.517Z,21.60
2018-07-15T05:41:38.739Z,21.70
2018-07-15T05:42:40.979Z,21.70
2018-07-15T05:43:43.234Z,21.70
2018-07-15T05:45:47.682Z,21.90
2018-07-15T05:46:49.977Z,22.00
2018-07-15T05:47:52.215Z,22.00
2018-07-15T05:48:54.457Z,22.10
2018-07-15T05:49:56.678Z,22.30
2018-07-15T05:50:58.888Z,22.20
2018-07-15T05:52:01.111Z,22.30
2018-07-15T05:53:03.383Z,22.40
2018-07-15T05:55:14.905Z,22.50
2018-07-15T05:56:17.156Z,22.60
2018-07-15T05:57:19.365Z,22.70
2018-07-15T05:58:21.564Z,22.80
2018-07-15T06:00:26.027Z,22.90
2018-07-15T06:01:28.294Z,23.00
2018-07-15T06:03:32.829Z,23.10
2018-07-15T06:04:35.073Z,23.20
2018-07-15T06:06:39.599Z,23.40
2018-07-15T06:07:41.856Z,23.40
2018-07-15T06:09:46.363Z,23.60
2018-07-15T06:10:48.713Z,23.70
2018-07-15T06:11:50.845Z,23.80
2018-07-15T06:12:53.055Z,23.90
2018-07-15T06:13:55.257Z,24.00
2018-07-15T06:14:57.511Z,24.00
2018-07-15T06:15:59.776Z,24.10
2018-07-15T06:17:02.118Z,24.10
2018-07-15T06:18:04.498Z,24.10
2018-07-15T06:19:06.724Z,24.10
2018-07-15T06:21:11.279Z,24.30
2018-07-15T06:22:13.722Z,24.30
2018-07-15T06:23:16.074Z,24.30
2018-07-15T06:24:18.571Z,24.40
2018-07-15T06:25:20.804Z,24.50
2018-07-15T06:26:23.010Z,24.50
2018-07-15T06:27:25.253Z,24.50
2018-07-15T06:28:27.482Z,24.60
2018-07-15T06:29:29.703Z,24.50
2018-07-15T06:30:31.935Z,24.60
2018-07-15T06:31:34.499Z,24.60
2018-07-15T06:32:36.791Z,24.60
2018-07-15T06:33:39.004Z,24.70
2018-07-15T06:34:41.259Z,24.80
2018-07-15T06:35:43.464Z,24.80
2018-07-15T06:36:45.654Z,24.80
2018-07-15T06:37:47.873Z,24.80
2018-07-15T06:38:50.092Z,24.90
2018-07-15T06:39:52.319Z,24.90
2018-07-15T06:41:56.778Z,25.00
2018-07-15T06:42:59.052Z,25.00
2018-07-15T06:44:01.271Z,25.00
2018-07-15T06:45:03.566Z,25.00
2018-07-15T06:46:05.798Z,25.10
2018-07-15T06:47:08.007Z,25.10
2018-07-15T06:48:10.228Z,25.10
2018-07-15T06:49:12.493Z,25.20
2018-07-15T06:50:14.619Z,25.20
2018-07-15T06:51:16.858Z,25.20
2018-07-15T06:52:19.149Z,25.20
2018-07-15T06:53:21.371Z,25.30
2018-07-15T06:54:23.595Z,25.30
2018-07-15T06:56:28.091Z,25.50
2018-07-15T06:57:30.330Z,25.50
2018-07-15T06:59:34.914Z,25.50
2018-07-15T07:00:37.193Z,25.50
2018-07-15T07:01:39.530Z,25.40
2018-07-15T07:03:43.958Z,25.40
2018-07-15T07:04:46.211Z,25.40
2018-07-15T07:05:48.422Z,25.50
2018-07-15T07:06:50.667Z,25.50
2018-07-15T07:08:55.255Z,25.40
2018-07-15T07:09:57.522Z,25.40
2018-07-15T07:10:59.786Z,25.40
2018-07-15T07:12:02.025Z,25.40
2018-07-15T07:13:04.372Z,25.40
2018-07-15T07:14:07.113Z,25.50
2018-07-15T07:15:09.322Z,25.60
2018-07-15T07:16:11.621Z,25.50
2018-07-15T07:17:13.960Z,25.50
2018-07-15T07:18:16.186Z,25.60
2018-07-15T07:19:18.361Z,25.60
2018-07-15T07:20:20.567Z,25.70
2018-07-15T07:21:22.799Z,25.70
2018-07-15T07:23:27.183Z,25.70
2018-07-15T07:24:29.385Z,25.70
2018-07-15T07:25:31.577Z,25.80
2018-07-15T07:26:33.762Z,25.80
2018-07-15T07:27:35.987Z,25.90
2018-07-15T07:29:44.259Z,26.00
2018-07-15T07:30:46.447Z,26.10
2018-07-15T07:31:48.710Z,26.10
2018-07-15T07:32:50.946Z,26.10
2018-07-15T07:33:53.214Z,26.20
2018-07-15T07:34:55.434Z,26.20
2018-07-15T07:35:57.680Z,26.30
2018-07-15T07:38:02.152Z,26.20
2018-07-15T07:39:04.723Z,26.30
2018-07-15T07:40:06.930Z,26.30
2018-07-15T07:41:09.252Z,26.30
2018-07-15T07:43:13.766Z,26.50
2018-07-15T07:44:15.988Z,26.50
2018-07-15T07:45:18.299Z,26.50
2018-07-15T07:46:20.540Z,26.60
2018-07-15T07:47:22.766Z,26.70
2018-07-15T07:48:25.013Z,26.60
2018-07-15T07:49:27.279Z,26.60
2018-07-15T07:50:29.607Z,26.60
2018-07-15T07:51:31.827Z,26.70
2018-07-15T07:52:34.047Z,26.60
2018-07-15T07:53:36.331Z,26.50
2018-07-15T07:54:38.655Z,26.70
2018-07-15T07:55:40.880Z,26.70
2018-07-15T07:56:48.458Z,26.70
2018-07-15T07:57:50.717Z,26.70
2018-07-15T07:58:52.946Z,26.70
2018-07-15T07:59:55.149Z,26.80
2018-07-15T08:01:59.799Z,26.80
2018-07-15T08:03:01.934Z,26.80
2018-07-15T08:05:06.455Z,26.80
2018-07-15T08:06:08.639Z,26.80
2018-07-15T08:07:10.913Z,26.80
2018-07-15T08:08:13.137Z,26.80
2018-07-15T08:09:15.387Z,26.80
2018-07-15T08:10:17.701Z,26.90
2018-07-15T08:11:19.942Z,26.90
2018-07-15T08:13:24.430Z,26.80
2018-07-15T08:14:27.093Z,26.80
2018-07-15T08:15:29.443Z,26.80
2018-07-15T08:16:31.643Z,26.90
2018-07-15T08:17:33.907Z,26.90
2018-07-15T08:18:36.102Z,26.90
2018-07-15T08:19:38.318Z,26.90
2018-07-15T08:20:41.569Z,26.90
2018-07-15T08:21:44.160Z,26.90
2018-07-15T08:22:46.389Z,26.90
2018-07-15T08:23:48.662Z,26.90
2018-07-15T08:24:50.855Z,27.00
2018-07-15T08:25:53.251Z,27.00
2018-07-15T08:26:56.131Z,27.10
2018-07-15T08:27:58.362Z,27.10
2018-07-15T08:29:00.567Z,27.10
2018-07-15T08:30:14.218Z,27.10
2018-07-15T08:31:17.821Z,27.10
2018-07-15T08:32:20.049Z,27.10
2018-07-15T08:33:22.259Z,27.10
2018-07-15T08:34:24.505Z,27.20
2018-07-15T08:35:26.767Z,27.20
2018-07-15T08:36:28.943Z,27.30
2018-07-15T08:37:31.209Z,27.20
2018-07-15T08:38:33.454Z,27.30
2018-07-15T08:39:35.698Z,27.30
2018-07-15T08:40:37.938Z,27.30
2018-07-15T08:41:40.058Z,27.40
2018-07-15T08:42:42.246Z,27.40
2018-07-15T08:43:44.496Z,27.40
2018-07-15T08:45:48.890Z,27.50
2018-07-15T08:46:51.074Z,27.50
2018-07-15T08:47:53.310Z,27.60
2018-07-15T08:48:55.510Z,27.60
2018-07-15T08:49:57.730Z,27.60
2018-07-15T08:50:59.983Z,27.60
2018-07-15T08:52:02.186Z,27.70
2018-07-15T08:54:06.709Z,27.70
2018-07-15T08:55:08.933Z,27.80
2018-07-15T08:57:13.386Z,27.90
2018-07-15T08:58:15.604Z,27.90
2018-07-15T08:59:17.799Z,27.90
2018-07-15T09:00:19.982Z,27.90
2018-07-15T09:01:22.189Z,27.90
2018-07-15T09:02:24.376Z,27.90
2018-07-15T09:03:26.565Z,27.90
2018-07-15T09:04:28.807Z,28.00
2018-07-15T09:05:31.035Z,28.00
2018-07-15T09:07:35.483Z,27.90
2018-07-15T09:08:37.712Z,27.90
2018-07-15T09:09:39.899Z,28.00
2018-07-15T09:10:42.097Z,27.90
2018-07-15T09:11:44.273Z,28.00
2018-07-15T09:13:48.897Z,28.00
2018-07-15T09:14:51.143Z,28.00
2018-07-15T09:15:53.340Z,28.10
2018-07-15T09:16:55.546Z,28.10
2018-07-15T09:17:57.727Z,28.10
2018-07-15T09:18:59.979Z,28.20
2018-07-15T09:20:02.264Z,28.20
2018-07-15T09:21:04.424Z,28.30
2018-07-15T09:22:06.643Z,28.30
2018-07-15T09:23:08.842Z,28.30
2018-07-15T09:24:11.088Z,28.40
2018-07-15T09:25:13.306Z,28.40
2018-07-15T09:26:15.527Z,28.40
2018-07-15T09:28:19.943Z,28.40
2018-07-15T09:30:24.340Z,28.50
2018-07-15T09:31:26.542Z,28.50
2018-07-15T09:32:28.754Z,28.50
2018-07-15T09:33:31.021Z,28.60
2018-07-15T09:34:33.239Z,28.70
2018-07-15T09:35:35.465Z,28.60
2018-07-15T09:36:37.643Z,28.70
2018-07-15T09:37:39.862Z,28.70
2018-07-15T09:38:42.055Z,28.70
2018-07-15T09:39:44.273Z,28.80
2018-07-15T09:40:46.486Z,28.80
2018-07-15T09:41:48.687Z,28.80
2018-07-15T09:42:50.901Z,28.80
2018-07-15T09:43:53.116Z,28.90
2018-07-15T09:44:55.293Z,28.90
2018-07-15T09:45:57.467Z,28.90
2018-07-15T09:46:59.684Z,29.00
2018-07-15T09:48:01.889Z,29.00
2018-07-15T09:49:04.508Z,29.00
2018-07-15T09:50:06.715Z,29.00
2018-07-15T09:51:08.927Z,29.00
2018-07-15T09:52:11.150Z,29.10
2018-07-15T09:53:13.346Z,29.00
2018-07-15T09:54:15.554Z,29.10
2018-07-15T09:55:17.761Z,29.10
2018-07-15T09:56:19.979Z,29.10
2018-07-15T09:57:22.165Z,29.20
2018-07-15T09:58:24.485Z,29.20
2018-07-15T09:59:26.591Z,29.20
2018-07-15T10:00:34.403Z,29.20
2018-07-15T10:02:38.822Z,29.20
2018-07-15T10:04:43.257Z,29.20
2018-07-15T10:05:45.412Z,29.20
2018-07-15T10:06:47.578Z,29.10
2018-07-15T10:07:49.745Z,29.10
2018-07-15T10:08:51.974Z,29.10
2018-07-15T10:09:54.193Z,29.20
2018-07-15T10:10:56.387Z,29.30
2018-07-15T10:11:58.535Z,29.30
2018-07-15T10:15:18.155Z,29.40
2018-07-15T10:16:20.333Z,29.50
2018-07-15T10:17:22.503Z,29.60
2018-07-15T10:18:24.679Z,29.50
2018-07-15T10:19:26.835Z,29.60
2018-07-15T10:20:29.034Z,29.60
2018-07-15T10:21:31.263Z,29.60
2018-07-15T10:22:33.486Z,29.70
2018-07-15T10:23:35.679Z,29.70
2018-07-15T10:24:37.876Z,29.70
2018-07-15T10:25:40.114Z,29.80
2018-07-15T10:26:42.339Z,29.80
2018-07-15T10:27:44.494Z,29.80
2018-07-15T10:28:46.692Z,29.80
2018-07-15T10:29:51.286Z,29.80
2018-07-15T10:30:53.475Z,29.70
2018-07-15T10:31:55.716Z,29.70
2018-07-15T10:32:57.834Z,29.60
2018-07-15T10:34:00.010Z,29.60
2018-07-15T10:35:02.238Z,29.50
2018-07-15T10:36:04.439Z,29.50
2018-07-15T10:37:06.623Z,29.50
2018-07-15T10:39:11.554Z,29.40
2018-07-15T10:40:13.754Z,29.40
2018-07-15T10:41:15.958Z,29.40
2018-07-15T10:42:18.208Z,29.40
2018-07-15T10:43:20.387Z,29.40
2018-07-15T10:44:22.613Z,29.30
2018-07-15T10:45:24.810Z,29.30
2018-07-15T10:46:26.990Z,29.30
2018-07-15T10:47:29.174Z,29.20
2018-07-15T10:48:31.402Z,29.20
2018-07-15T10:49:33.581Z,29.20
2018-07-15T10:50:35.761Z,29.20
2018-07-15T10:51:37.934Z,29.20
2018-07-15T10:52:40.106Z,29.10
2018-07-15T10:53:42.301Z,29.10
2018-07-15T10:54:44.513Z,29.10
2018-07-15T10:55:46.714Z,29.10
2018-07-15T10:56:48.891Z,29.10
2018-07-15T10:57:51.179Z,29.10
2018-07-15T10:58:53.431Z,29.10
2018-07-15T11:00:57.864Z,29.00
2018-07-15T11:03:02.323Z,29.00
2018-07-15T11:04:04.551Z,29.00
2018-07-15T11:05:06.929Z,29.00
2018-07-15T11:06:09.147Z,28.90
2018-07-15T11:07:11.319Z,28.90
2018-07-15T11:08:13.537Z,28.90
2018-07-15T11:09:15.796Z,28.90
2018-07-15T11:10:17.996Z,28.90
2018-07-15T11:11:20.185Z,28.90
2018-07-15T11:12:22.410Z,28.80
2018-07-15T11:13:24.695Z,28.80
2018-07-15T11:14:26.860Z,28.80
2018-07-15T11:15:29.123Z,28.80
2018-07-15T11:17:33.568Z,28.70
2018-07-15T11:18:35.837Z,28.70
2018-07-15T11:19:38.062Z,28.70
2018-07-15T11:20:40.253Z,28.60
2018-07-15T11:21:42.454Z,28.60
2018-07-15T11:22:44.707Z,28.60
2018-07-15T11:24:49.151Z,28.50
2018-07-15T11:25:51.347Z,28.50
2018-07-15T11:26:53.558Z,28.40
2018-07-15T11:28:57.993Z,28.40
2018-07-15T11:30:00.174Z,28.30
2018-07-15T11:31:02.636Z,28.30
2018-07-15T11:32:04.657Z,28.30
2018-07-15T11:33:06.875Z,28.30
2018-07-15T11:34:09.032Z,28.20
2018-07-15T11:35:11.255Z,28.20
2018-07-15T11:37:15.616Z,28.10
2018-07-15T11:38:17.839Z,28.10
2018-07-15T11:39:20.026Z,28.10
2018-07-15T11:40:22.204Z,28.10
2018-07-15T11:41:24.389Z,28.10
2018-07-15T11:42:26.615Z,28.00
2018-07-15T11:43:28.791Z,28.00
2018-07-15T11:44:37.860Z,28.00
2018-07-15T11:45:40.084Z,28.00
2018-07-15T11:46:42.286Z,27.90
2018-07-15T11:47:44.461Z,27.90
2018-07-15T11:48:46.679Z,27.90
2018-07-15T11:49:48.866Z,27.90
2018-07-15T11:50:51.023Z,27.80
2018-07-15T11:51:53.182Z,27.80
2018-07-15T11:52:55.409Z,27.80
2018-07-15T11:53:57.587Z,27.70
2018-07-15T11:54:59.745Z,27.70
2018-07-15T11:57:04.281Z,27.60
2018-07-15T11:58:06.458Z,27.60
2018-07-15T11:59:08.663Z,27.50
2018-07-15T12:00:10.912Z,27.40
2018-07-15T12:01:13.087Z,27.40
2018-07-15T12:02:15.286Z,27.30
2018-07-15T12:03:17.802Z,27.20
2018-07-15T12:04:19.971Z,27.10
2018-07-15T12:05:22.173Z,27.00
2018-07-15T12:07:26.638Z,26.80
2018-07-15T12:08:28.822Z,26.70
2018-07-15T12:09:31.681Z,26.50
2018-07-15T12:10:33.934Z,26.50
2018-07-15T12:11:36.125Z,26.40
2018-07-15T12:12:38.314Z,26.30
2018-07-15T12:13:40.494Z,26.20
2018-07-15T12:14:42.717Z,26.10
2018-07-15T12:15:45.029Z,26.00
2018-07-15T12:16:47.206Z,26.10
2018-07-15T12:17:49.426Z,25.90
2018-07-15T12:18:51.639Z,25.90
2018-07-15T12:20:00.760Z,25.80
2018-07-15T12:21:02.960Z,25.80
2018-07-15T12:22:05.263Z,25.80
2018-07-15T12:23:07.494Z,25.70
2018-07-15T12:25:11.976Z,25.70
2018-07-15T12:26:14.155Z,25.70
2018-07-15T12:27:16.382Z,25.70
2018-07-15T12:29:20.753Z,25.60
2018-07-15T12:30:22.936Z,25.60
2018-07-15T12:31:25.114Z,25.60
2018-07-15T12:32:27.334Z,25.50
2018-07-15T12:33:29.564Z,25.50
2018-07-15T12:35:34.030Z,25.50
2018-07-15T12:36:36.218Z,25.50
2018-07-15T12:37:38.382Z,25.50
2018-07-15T12:38:40.557Z,25.50
2018-07-15T12:40:44.993Z,25.50
2018-07-15T12:41:47.166Z,25.50
2018-07-15T12:42:49.352Z,25.50
2018-07-15T12:44:53.884Z,25.50
2018-07-15T12:45:56.094Z,25.50
2018-07-15T12:46:58.325Z,25.60
2018-07-15T12:48:00.540Z,25.70
2018-07-15T12:49:02.800Z,25.70
2018-07-15T12:50:05.087Z,25.80
2018-07-15T12:51:07.310Z,25.90
2018-07-15T12:52:09.527Z,26.00
2018-07-15T12:53:11.698Z,26.10
2018-07-15T12:54:13.905Z,26.00
2018-07-15T12:55:16.082Z,26.20
2018-07-15T12:56:18.260Z,26.20
2018-07-15T12:57:20.407Z,26.30
2018-07-15T12:58:22.572Z,26.30
2018-07-15T12:59:24.752Z,26.30
2018-07-15T13:00:26.937Z,26.20
2018-07-15T13:01:29.175Z,26.20
2018-07-15T13:02:31.465Z,26.10
2018-07-15T13:04:35.891Z,26.00
2018-07-15T13:06:40.320Z,26.00
2018-07-15T13:07:42.510Z,25.90
2018-07-15T13:08:44.697Z,25.80
2018-07-15T13:09:46.914Z,25.90
2018-07-15T13:10:49.118Z,25.90
2018-07-15T13:11:51.327Z,25.80
2018-07-15T13:12:53.543Z,25.70
2018-07-15T13:13:55.745Z,25.70
2018-07-15T13:14:57.934Z,25.80
2018-07-15T13:16:00.155Z,25.80
2018-07-15T13:17:02.390Z,25.90
2018-07-15T13:18:04.574Z,26.00
2018-07-15T13:19:06.770Z,26.00
2018-07-15T13:20:08.954Z,26.10
2018-07-15T13:21:11.146Z,26.10
2018-07-15T13:22:13.346Z,26.20
2018-07-15T13:23:15.546Z,26.20
2018-07-15T13:24:17.763Z,26.30
2018-07-15T13:25:19.946Z,26.40
2018-07-15T13:26:22.094Z,26.60
2018-07-15T13:27:24.294Z,26.80
2018-07-15T13:28:26.486Z,27.10
2018-07-15T13:29:28.693Z,27.40
2018-07-15T13:30:30.943Z,27.60
2018-07-15T13:31:33.130Z,27.80
2018-07-15T13:32:35.312Z,28.00
2018-07-15T13:33:37.495Z,28.20
2018-07-15T13:34:39.713Z,28.40
2018-07-15T13:35:41.902Z,28.50
2018-07-15T13:36:44.116Z,28.60
2018-07-15T13:37:46.310Z,28.70
2018-07-15T13:38:48.500Z,28.80
2018-07-15T13:39:50.715Z,28.70
2018-07-15T13:41:55.245Z,28.60
2018-07-15T13:42:57.322Z,28.70
2018-07-15T13:43:59.534Z,28.70
2018-07-15T13:45:01.808Z,28.90
2018-07-15T13:46:04.113Z,28.90
2018-07-15T13:47:06.304Z,29.00
2018-07-15T13:49:10.751Z,29.00
2018-07-15T13:50:12.946Z,28.90
2018-07-15T13:51:15.177Z,28.90
2018-07-15T13:52:17.383Z,28.90
2018-07-15T13:53:19.579Z,28.80
2018-07-15T13:54:21.850Z,28.70
2018-07-15T13:55:24.074Z,28.70
2018-07-15T13:56:26.230Z,28.50
2018-07-15T13:57:28.453Z,28.50
2018-07-15T13:58:30.679Z,28.50
2018-07-15T14:00:35.119Z,28.30
2018-07-15T14:01:37.281Z,28.30
2018-07-15T14:02:39.468Z,28.30
2018-07-15T14:03:41.626Z,28.30
2018-07-15T14:04:43.831Z,28.30
2018-07-15T14:05:46.002Z,28.30
2018-07-15T14:06:48.227Z,28.20
2018-07-15T14:07:50.680Z,28.10
2018-07-15T14:08:52.891Z,28.10
2018-07-15T14:09:55.090Z,28.10
2018-07-15T14:10:57.262Z,28.10
2018-07-15T14:13:01.663Z,28.00
2018-07-15T14:14:03.878Z,28.00
2018-07-15T14:15:06.084Z,28.00
2018-07-15T14:16:08.290Z,28.00
2018-07-15T14:17:10.466Z,28.00
2018-07-15T14:18:12.659Z,28.00
2018-07-15T14:19:14.822Z,28.00
2018-07-15T14:20:17.050Z,28.10
2018-07-15T14:21:19.340Z,28.10
2018-07-15T14:22:21.427Z,28.20
2018-07-15T14:24:25.941Z,28.30
2018-07-15T14:25:28.114Z,28.40
2018-07-15T14:26:30.315Z,28.50
2018-07-15T14:27:32.481Z,28.60
2018-07-15T14:28:34.690Z,28.70
2018-07-15T14:29:36.885Z,28.80
2018-07-15T14:30:39.049Z,28.70
2018-07-15T14:31:41.227Z,28.80
2018-07-15T14:32:43.425Z,28.80
2018-07-15T14:33:45.622Z,28.80
2018-07-15T14:34:47.785Z,28.80
2018-07-15T14:35:49.947Z,28.90
2018-07-15T14:36:52.114Z,28.90
2018-07-15T14:37:54.361Z,28.90
2018-07-15T14:38:56.503Z,28.80
2018-07-15T14:39:58.675Z,28.80
2018-07-15T14:41:00.888Z,28.80